createdAt,value
2023-01-29T00:02:35.000Z,-0.22
2023-01-29T00:07:35.000Z,-0.06
2023-01-29T00:12:35.000Z,-0.18
2023-01-29T00:17:35.000Z,-0.3
2023-01-29T00:22:34.000Z,-0.29
2023-01-29T00:27:35.000Z,-0.09
2023-01-29T00:32:35.000Z,-0.09
2023-01-29T00:37:35.000Z,-0.07
2023-01-29T00:42:35.000Z,-0.03
2023-01-29T00:47:34.000Z,-0.05
2023-01-29T00:52:35.000Z,-0.01
2023-01-29T00:57:35.000Z,0.07
2023-01-29T01:02:35.000Z,0.22
2023-01-29T01:12:35.000Z,-0.05
2023-01-29T01:17:35.000Z,-0.26
2023-01-29T01:22:34.000Z,-0.5
2023-01-29T01:27:35.000Z,-0.54
2023-01-29T01:32:34.000Z,-0.48
2023-01-29T01:37:35.000Z,-0.36
2023-01-29T01:42:34.000Z,-0.38
2023-01-29T01:47:35.000Z,-0.38
2023-01-29T01:52:35.000Z,-0.44
2023-01-29T01:57:35.000Z,-0.56
2023-01-29T02:02:35.000Z,-0.65
2023-01-29T02:07:34.000Z,-0.68
2023-01-29T02:12:35.000Z,-0.6
2023-01-29T02:17:34.000Z,-0.72
2023-01-29T02:22:35.000Z,-0.77
2023-01-29T02:27:34.000Z,-0.73
2023-01-29T02:32:35.000Z,-0.74
2023-01-29T02:37:35.000Z,-0.94
2023-01-29T02:42:34.000Z,-0.71
2023-01-29T02:47:35.000Z,-0.74
2023-01-29T02:52:35.000Z,-0.77
2023-01-29T03:02:35.000Z,-0.7
2023-01-29T03:07:34.000Z,-0.46
2023-01-29T03:12:35.000Z,-0.37
2023-01-29T03:17:34.000Z,-0.3
2023-01-29T03:22:34.000Z,-0.41
2023-01-29T03:27:34.000Z,-0.68
2023-01-29T03:32:34.000Z,-0.71
2023-01-29T03:37:35.000Z,-0.61
2023-01-29T03:42:34.000Z,-0.51
2023-01-29T03:47:34.000Z,-0.39
2023-01-29T03:52:34.000Z,-0.34
2023-01-29T03:57:34.000Z,-0.24
2023-01-29T04:02:34.000Z,-0.36
2023-01-29T04:07:35.000Z,-0.36
2023-01-29T04:12:34.000Z,-0.37
2023-01-29T04:17:34.000Z,-0.41
2023-01-29T04:22:35.000Z,-0.37
2023-01-29T04:27:34.000Z,-0.46
2023-01-29T04:32:35.000Z,-0.47
2023-01-29T04:37:35.000Z,-0.5
2023-01-29T04:42:35.000Z,-0.57
2023-01-29T04:47:34.000Z,-0.69
2023-01-29T04:52:35.000Z,-0.61
2023-01-29T05:02:34.000Z,-0.8
2023-01-29T05:07:35.000Z,-0.8
2023-01-29T05:12:35.000Z,-0.94
2023-01-29T05:17:35.000Z,-1.03
2023-01-29T05:22:35.000Z,-1.14
2023-01-29T05:27:35.000Z,-1
2023-01-29T05:32:35.000Z,-0.96
2023-01-29T05:37:34.000Z,-0.99
2023-01-29T05:42:35.000Z,-1.09
2023-01-29T05:47:35.000Z,-1.2
2023-01-29T05:52:35.000Z,-1.2
2023-01-29T05:57:34.000Z,-1.09
2023-01-29T06:02:35.000Z,-1.09
2023-01-29T06:07:34.000Z,-1.06
2023-01-29T06:12:35.000Z,-0.98
2023-01-29T06:17:34.000Z,-1.04
2023-01-29T06:22:35.000Z,-1.07
2023-01-29T06:27:34.000Z,-1.16
2023-01-29T06:32:35.000Z,-1.07
2023-01-29T06:37:34.000Z,-1.06
2023-01-29T06:42:35.000Z,-1.14
2023-01-29T06:47:34.000Z,-1.2
2023-01-29T06:52:35.000Z,-1.12
2023-01-29T06:57:34.000Z,-0.95
2023-01-29T07:02:35.000Z,-0.99
2023-01-29T07:07:34.000Z,-1.09
2023-01-29T07:12:35.000Z,-1.09
2023-01-29T07:17:35.000Z,-1.13
2023-01-29T07:22:35.000Z,-1.19
2023-01-29T07:27:34.000Z,-1.09
2023-01-29T07:32:35.000Z,-1.08
2023-01-29T07:37:35.000Z,-1.01
2023-01-29T07:42:35.000Z,-1.06
2023-01-29T07:47:35.000Z,-1
2023-01-29T07:52:35.000Z,-0.92
2023-01-29T07:57:34.000Z,-0.92
2023-01-29T08:02:34.000Z,-0.82
2023-01-29T08:12:34.000Z,-0.62
2023-01-29T08:17:34.000Z,-0.57
2023-01-29T08:22:35.000Z,-0.46
2023-01-29T08:27:34.000Z,-0.46
2023-01-29T08:32:35.000Z,-0.43
2023-01-29T08:37:35.000Z,-0.25
2023-01-29T08:42:35.000Z,-0.18
2023-01-29T08:47:34.000Z,-0.12
2023-01-29T08:52:35.000Z,-0.01
2023-01-29T09:07:35.000Z,-0.09
2023-01-29T09:12:35.000Z,0.05
2023-01-29T09:17:34.000Z,0.11
2023-01-29T09:22:35.000Z,0.13
2023-01-29T09:27:34.000Z,0.22
2023-01-29T09:33:03.000Z,0.18
2023-01-29T09:37:34.000Z,0.12
2023-01-29T09:42:35.000Z,-0.04
2023-01-29T09:47:35.000Z,-0.27
2023-01-29T09:52:34.000Z,-0.32
2023-01-29T09:57:35.000Z,-0.39
2023-01-29T10:02:34.000Z,-0.29
2023-01-29T10:17:35.000Z,-0.12
2023-01-29T10:22:35.000Z,-0.02
2023-01-29T10:27:34.000Z,0.06
2023-01-29T10:32:35.000Z,0.18
2023-01-29T10:37:35.000Z,-0.07
2023-01-29T10:42:34.000Z,-0.07
2023-01-29T10:47:35.000Z,-0.09
2023-01-29T10:52:35.000Z,-0
2023-01-29T10:57:35.000Z,0.05
2023-01-29T11:02:35.000Z,0.1
2023-01-29T11:07:35.000Z,0.2
2023-01-29T11:12:35.000Z,0.18
2023-01-29T11:17:35.000Z,0.24
2023-01-29T11:32:35.000Z,0.02
2023-01-29T11:42:35.000Z,-0.14
2023-01-29T11:47:35.000Z,-0.08
2023-01-29T11:57:35.000Z,0.11
2023-01-29T12:02:35.000Z,0.14
2023-01-29T12:07:34.000Z,0.13
2023-01-29T12:12:35.000Z,0.05
2023-01-29T12:17:34.000Z,-0.05
2023-01-29T12:22:35.000Z,-0.05
2023-01-29T12:27:34.000Z,-0.06
2023-01-29T12:37:35.000Z,-0
2023-01-29T12:42:35.000Z,-0.06
2023-01-29T12:52:35.000Z,0.02
2023-01-29T12:57:34.000Z,-0.03
2023-01-29T13:02:34.000Z,0.02
2023-01-29T13:07:34.000Z,-0.1
2023-01-29T13:12:34.000Z,-0.12
2023-01-29T13:17:35.000Z,-0.07
2023-01-29T13:22:34.000Z,-0.11
2023-01-29T13:27:34.000Z,-0.11
2023-01-29T13:32:35.000Z,-0.27
2023-01-29T13:37:34.000Z,-0.28
2023-01-29T13:42:35.000Z,-0.29
2023-01-29T13:47:35.000Z,-0.49
2023-01-29T13:52:34.000Z,-0.47
2023-01-29T13:57:34.000Z,-0.43
2023-01-29T14:02:35.000Z,-0.42
2023-01-29T14:07:34.000Z,-0.51
2023-01-29T14:17:34.000Z,-0.54
2023-01-29T14:22:35.000Z,-0.5
2023-01-29T14:27:35.000Z,-0.58
2023-01-29T14:32:35.000Z,-0.65
2023-01-29T14:37:35.000Z,-0.65
2023-01-29T14:42:35.000Z,-0.5
2023-01-29T14:47:35.000Z,-0.41
2023-01-29T14:57:35.000Z,-0.52
2023-01-29T15:02:35.000Z,-0.46
2023-01-29T15:07:35.000Z,-0.47
2023-01-29T15:12:34.000Z,-0.55
2023-01-29T15:17:34.000Z,-0.45
2023-01-29T15:22:34.000Z,-0.4
2023-01-29T15:32:35.000Z,-0.43
2023-01-29T15:37:35.000Z,-0.5
2023-01-29T15:42:35.000Z,-0.49
2023-01-29T15:47:34.000Z,-0.57
2023-01-29T15:52:35.000Z,-0.58
2023-01-29T15:57:35.000Z,-0.53
2023-01-29T16:02:35.000Z,-0.53
2023-01-29T16:07:35.000Z,-0.65
2023-01-29T16:17:35.000Z,-0.71
2023-01-29T16:22:34.000Z,-0.78
2023-01-29T16:27:35.000Z,-0.8
2023-01-29T16:32:35.000Z,-0.93
2023-01-29T16:37:35.000Z,-0.87
2023-01-29T16:42:34.000Z,-0.95
2023-01-29T16:47:35.000Z,-0.96
2023-01-29T16:52:34.000Z,-0.95
2023-01-29T16:57:35.000Z,-0.99
2023-01-29T17:02:35.000Z,-0.99
2023-01-29T17:07:34.000Z,-0.88
2023-01-29T17:12:35.000Z,-0.85
2023-01-29T17:17:34.000Z,-0.82
2023-01-29T17:22:35.000Z,-0.78
2023-01-29T17:27:34.000Z,-0.88
2023-01-29T17:32:34.000Z,-0.87
2023-01-29T17:37:35.000Z,-0.89
2023-01-29T17:42:34.000Z,-0.88
2023-01-29T17:47:35.000Z,-0.91
2023-01-29T17:52:35.000Z,-0.85
2023-01-29T17:57:35.000Z,-0.79
2023-01-29T18:02:39.000Z,-0.83
2023-01-29T18:07:34.000Z,-0.73
2023-01-29T18:12:35.000Z,-0.73
2023-01-29T18:17:34.000Z,-0.75
2023-01-29T18:22:35.000Z,-0.85
2023-01-29T18:37:35.000Z,-0.76
2023-01-29T18:42:34.000Z,-0.78
2023-01-29T18:47:35.000Z,-0.68
2023-01-29T18:52:34.000Z,-0.52
2023-01-29T18:58:46.000Z,-0.55
2023-01-29T19:07:35.000Z,-0.54
2023-01-29T19:12:35.000Z,-0.54
2023-01-29T19:17:35.000Z,-0.47
2023-01-29T19:27:35.000Z,-0.47
2023-01-29T19:32:35.000Z,-0.5
2023-01-29T19:42:34.000Z,-0.54
2023-01-29T19:47:35.000Z,-0.38
2023-01-29T19:52:34.000Z,-0.41
2023-01-29T19:57:35.000Z,-0.53
2023-01-29T20:02:34.000Z,-0.46
2023-01-29T20:07:35.000Z,-0.39
2023-01-29T20:12:35.000Z,-0.45
2023-01-29T20:17:34.000Z,-0.47
2023-01-29T20:22:35.000Z,-0.39
2023-01-29T20:27:35.000Z,-0.37
2023-01-29T20:32:34.000Z,-0.37
2023-01-29T20:37:35.000Z,-0.41
2023-01-29T20:42:35.000Z,-0.38
2023-01-29T20:47:35.000Z,-0.28
2023-01-29T20:52:35.000Z,-0.4
2023-01-29T20:57:35.000Z,-0.56
2023-01-29T21:02:35.000Z,-0.73
2023-01-29T21:07:34.000Z,-0.78
2023-01-29T21:12:35.000Z,-0.79
2023-01-29T21:17:38.000Z,-0.7
2023-01-29T21:22:35.000Z,-0.67
2023-01-29T21:27:34.000Z,-0.76
2023-01-29T21:32:35.000Z,-0.9
2023-01-29T21:42:35.000Z,-0.87
2023-01-29T21:47:34.000Z,-0.87
2023-01-29T21:52:35.000Z,-0.78
2023-01-29T21:57:35.000Z,-0.7
2023-01-29T22:02:35.000Z,-0.75
2023-01-29T22:07:35.000Z,-0.69
2023-01-29T22:12:34.000Z,-0.7
2023-01-29T22:17:34.000Z,-0.77
2023-01-29T22:22:35.000Z,-0.73
2023-01-29T22:37:34.000Z,-0.69
2023-01-29T22:42:35.000Z,-0.63
2023-01-29T22:47:34.000Z,-0.71
2023-01-29T22:52:35.000Z,-0.58
2023-01-29T22:57:34.000Z,-0.64
2023-01-29T23:02:35.000Z,-0.7
2023-01-29T23:07:35.000Z,-0.72
2023-01-29T23:12:35.000Z,-0.74
2023-01-29T23:17:34.000Z,-0.77
2023-01-29T23:22:34.000Z,-0.88
2023-01-29T23:27:35.000Z,-0.82
2023-01-29T23:32:34.000Z,-0.82
2023-01-29T23:37:35.000Z,-0.68
2023-01-29T23:42:35.000Z,-0.71
2023-01-29T23:47:34.000Z,-0.89
2023-01-29T23:52:35.000Z,-0.88
2023-01-29T23:57:34.000Z,-0.79
